Time;durP1;ratioP1;P1;durP2;ratioP2;P2;SDS_P1;SDS_P2;PMS_P1;PMS_P2;Temp;Humidity;BMP_temperature;BMP_pressure;BME280_temperature;BME280_humidity;BME280_pressure;Samples;Min_cycle;Max_cycle;Signal;HPM_P1;HPM_P2
2021/07/21 00:00:06;;;;;;;12.75;4.68;;;;;;;;;;5001283;28;20044;-54
2021/07/21 00:02:32;;;;;;;12.87;4.30;;;;;;;;;;4998960;28;20035;-53
2021/07/21 00:04:58;;;;;;;8.57;4.00;;;;;;;;;;5038153;28;20037;-55
2021/07/21 00:07:27;;;;;;;8.68;4.10;;;;;;;;;;5027522;28;20095;-54
2021/07/21 00:09:55;;;;;;;10.25;4.38;;;;;;;;;;5039433;28;20045;-52
2021/07/21 00:15:07;;;;;;;11.63;4.32;;;;;;;;;;5046777;28;20104;-53
2021/07/21 00:17:45;;;;;;;7.75;3.70;;;;;;;;;;5027080;28;20051;-55
2021/07/21 00:20:12;;;;;;;10.32;3.88;;;;;;;;;;5044866;28;20034;-54
2021/07/21 00:22:40;;;;;;;10.05;4.25;;;;;;;;;;5035716;28;20041;-51
2021/07/21 00:25:10;;;;;;;8.13;4.13;;;;;;;;;;5025687;28;20026;-52
2021/07/21 00:27:38;;;;;;;13.13;4.45;;;;;;;;;;5019699;28;20041;-54
2021/07/21 00:30:06;;;;;;;16.70;4.50;;;;;;;;;;5028801;28;20048;-54
2021/07/21 00:32:34;;;;;;;7.30;3.72;;;;;;;;;;5026673;28;20073;-55
2021/07/21 00:35:01;;;;;;;11.32;3.95;;;;;;;;;;5048203;28;20049;-55
2021/07/21 00:37:27;;;;;;;10.60;4.25;;;;;;;;;;5040599;28;20048;-55
2021/07/21 00:39:54;;;;;;;10.68;3.95;;;;;;;;;;5030009;28;20141;-56
2021/07/21 00:42:22;;;;;;;10.55;3.90;;;;;;;;;;5046166;28;20025;-54
2021/07/21 00:44:48;;;;;;;10.88;3.92;;;;;;;;;;5043235;28;20041;-51
2021/07/21 00:47:17;;;;;;;11.82;4.70;;;;;;;;;;5047862;28;20037;-53
2021/07/21 00:49:43;;;;;;;;;;;;;;;;;;5025978;28;20037;-52
2021/07/21 00:52:10;;;;;;;9.10;3.88;;;;;;;;;;5006983;28;19921;-50
2021/07/21 00:54:36;;;;;;;8.73;4.43;;;;;;;;;;5037325;28;20045;-52
2021/07/21 00:57:05;;;;;;;8.40;4.22;;;;;;;;;;5051460;28;20037;-52
2021/07/21 00:59:34;;;;;;;7.13;3.63;;;;;;;;;;5033570;28;20033;-54
2021/07/21 01:02:01;;;;;;;10.13;4.68;;;;;;;;;;5041646;28;20042;-53
2021/07/21 01:04:29;;;;;;;10.15;4.20;;;;;;;;;;5029998;28;20037;-54
2021/07/21 01:06:56;;;;;;;9.10;4.07;;;;;;;;;;5044734;28;20049;-55
2021/07/21 01:09:22;;;;;;;9.23;3.90;;;;;;;;;;5038532;28;20037;-53
2021/07/21 01:11:54;;;;;;;10.88;4.82;;;;;;;;;;5024565;28;20484;-51
2021/07/21 01:14:23;;;;;;;15.63;4.63;;;;;;;;;;5027911;28;20057;-51
2021/07/21 01:16:53;;;;;;;8.43;4.15;;;;;;;;;;5029449;28;20029;-51
2021/07/21 01:19:21;;;;;;;10.38;4.32;;;;;;;;;;5039766;28;20057;-54
2021/07/21 01:21:48;;;;;;;;;;;;;;;;;;5026550;28;20071;-51
2021/07/21 01:24:19;;;;;;;8.68;3.95;;;;;;;;;;5022459;28;20107;-53
2021/07/21 01:27:03;;;;;;;10.23;4.18;;;;;;;;;;5043653;28;20057;-52
2021/07/21 01:29:30;;;;;;;10.10;4.05;;;;;;;;;;5021918;28;20041;-54
2021/07/21 01:31:57;;;;;;;8.85;3.40;;;;;;;;;;5042613;28;20050;-56
2021/07/21 01:34:26;;;;;;;9.07;4.05;;;;;;;;;;5043006;28;20034;-53
2021/07/21 01:36:54;;;;;;;10.75;4.65;;;;;;;;;;5027431;28;20038;-54
2021/07/21 01:39:22;;;;;;;10.68;4.68;;;;;;;;;;5045924;28;20042;-54
2021/07/21 01:41:52;;;;;;;9.70;4.40;;;;;;;;;;5023946;28;20041;-52
2021/07/21 01:44:20;;;;;;;9.60;4.10;;;;;;;;;;5041769;28;20033;-54
2021/07/21 01:46:49;;;;;;;11.57;4.22;;;;;;;;;;5041401;28;20041;-52
2021/07/21 01:49:16;;;;;;;11.25;4.50;;;;;;;;;;5047008;28;20343;-52
2021/07/21 01:51:43;;;;;;;9.88;4.10;;;;;;;;;;5042096;28;20038;-52
2021/07/21 01:54:10;;;;;;;12.18;4.53;;;;;;;;;;5027933;28;20062;-52
2021/07/21 01:56:37;;;;;;;11.40;4.20;;;;;;;;;;5015442;28;20061;-55
2021/07/21 01:59:05;;;;;;;9.13;3.60;;;;;;;;;;5025294;28;20048;-55
2021/07/21 02:01:33;;;;;;;9.07;4.40;;;;;;;;;;5024478;28;20050;-55
2021/07/21 02:04:01;;;;;;;9.00;4.00;;;;;;;;;;5022104;28;20315;-53
2021/07/21 02:06:31;;;;;;;10.65;3.97;;;;;;;;;;5003100;28;20038;-53
2021/07/21 02:09:00;;;;;;;9.45;3.90;;;;;;;;;;5004363;28;20053;-53
2021/07/21 02:11:27;;;;;;;10.43;4.07;;;;;;;;;;4999618;28;20120;-55
2021/07/21 02:13:57;;;;;;;8.70;4.03;;;;;;;;;;5006640;28;20038;-56
2021/07/21 02:16:24;;;;;;;8.68;4.40;;;;;;;;;;5002448;28;20617;-53
2021/07/21 02:18:54;;;;;;;10.00;3.83;;;;;;;;;;5023415;28;20074;-51
2021/07/21 02:21:21;;;;;;;10.05;4.15;;;;;;;;;;5004544;28;20034;-55
2021/07/21 02:23:48;;;;;;;12.73;3.92;;;;;;;;;;5005196;28;20063;-55
2021/07/21 02:26:16;;;;;;;10.23;4.22;;;;;;;;;;5023553;28;20049;-52
2021/07/21 02:29:05;;;;;;;11.13;3.72;;;;;;;;;;5001672;28;20034;-49
2021/07/21 02:31:33;;;;;;;12.77;3.97;;;;;;;;;;5010598;28;20053;-48
2021/07/21 02:34:03;;;;;;;11.55;4.65;;;;;;;;;;5002001;28;20114;-52
2021/07/21 02:36:30;;;;;;;8.63;4.07;;;;;;;;;;5007409;28;20042;-54
2021/07/21 02:38:56;;;;;;;10.75;4.30;;;;;;;;;;5001652;28;20038;-54
2021/07/21 02:41:23;;;;;;;8.93;4.10;;;;;;;;;;5004985;28;20049;-54
2021/07/21 02:43:50;;;;;;;8.07;4.07;;;;;;;;;;5001598;28;20030;-50
2021/07/21 02:46:16;;;;;;;8.73;4.05;;;;;;;;;;5022671;28;20037;-53
2021/07/21 02:48:46;;;;;;;10.25;4.53;;;;;;;;;;5018548;28;20034;-52
2021/07/21 02:51:16;;;;;;;12.27;4.45;;;;;;;;;;5005400;28;20046;-50
2021/07/21 02:53:46;;;;;;;10.95;4.10;;;;;;;;;;5001657;28;20120;-52
2021/07/21 02:56:14;;;;;;;12.38;4.13;;;;;;;;;;5005370;28;20037;-54
2021/07/21 02:58:45;;;;;;;10.02;4.25;;;;;;;;;;5002629;28;20054;-54
2021/07/21 03:01:12;;;;;;;10.38;4.25;;;;;;;;;;5004554;28;20038;-54
2021/07/21 03:03:38;;;;;;;11.73;4.25;;;;;;;;;;5013566;28;20047;-50
2021/07/21 03:06:06;;;;;;;8.23;4.03;;;;;;;;;;4985036;28;20038;-51
2021/07/21 03:08:48;;;;;;;9.82;4.53;;;;;;;;;;4986375;28;20104;-50
2021/07/21 03:11:14;;;;;;;7.32;3.65;;;;;;;;;;5006452;28;20050;-51
2021/07/21 03:13:43;;;;;;;8.88;3.83;;;;;;;;;;5014433;28;20160;-53
2021/07/21 03:16:10;;;;;;;8.90;4.40;;;;;;;;;;5001594;28;20035;-52
2021/07/21 03:18:47;;;;;;;9.38;4.13;;;;;;;;;;4999468;28;20046;-53
2021/07/21 03:21:14;;;;;;;13.02;4.32;;;;;;;;;;4985058;28;20046;-54
2021/07/21 03:23:41;;;;;;;9.93;4.40;;;;;;;;;;5001699;28;20031;-51
2021/07/21 03:26:09;;;;;;;9.63;4.28;;;;;;;;;;5003090;28;20100;-55
2021/07/21 03:28:52;;;;;;;8.77;4.22;;;;;;;;;;5005728;28;20050;-51
2021/07/21 03:31:19;;;;;;;10.50;4.15;;;;;;;;;;5001324;28;20038;-53
2021/07/21 03:33:47;;;;;;;8.70;4.07;;;;;;;;;;5021318;28;20128;-55
2021/07/21 03:36:14;;;;;;;12.98;4.18;;;;;;;;;;5012599;28;20042;-55
2021/07/21 03:38:42;;;;;;;8.52;4.10;;;;;;;;;;5000359;28;20049;-52
2021/07/21 03:41:11;;;;;;;8.23;3.95;;;;;;;;;;5012458;28;20053;-55
2021/07/21 03:43:37;;;;;;;;;;;;;;;;;;5005768;28;20056;-55
2021/07/21 03:46:04;;;;;;;8.32;3.70;;;;;;;;;;5016271;28;19977;-55
2021/07/21 03:48:42;;;;;;;10.63;4.47;;;;;;;;;;5020173;28;20116;-53
2021/07/21 03:51:09;;;;;;;8.80;3.72;;;;;;;;;;4990332;28;20097;-54
2021/07/21 03:53:35;;;;;;;9.60;4.38;;;;;;;;;;5000591;28;20096;-55
2021/07/21 03:56:02;;;;;;;12.68;4.32;;;;;;;;;;5002493;28;20053;-50
2021/07/21 03:58:32;;;;;;;10.20;4.35;;;;;;;;;;5000729;28;20058;-51
2021/07/21 04:00:59;;;;;;;9.77;3.67;;;;;;;;;;4987780;28;20034;-51
2021/07/21 04:03:28;;;;;;;10.73;3.95;;;;;;;;;;5029546;28;20053;-49
2021/07/21 04:05:55;;;;;;;8.90;3.97;;;;;;;;;;5026386;28;20049;-54
2021/07/21 04:08:28;;;;;;;9.20;4.03;;;;;;;;;;5022333;28;20034;-54
2021/07/21 04:10:55;;;;;;;9.13;4.00;;;;;;;;;;5000337;28;20054;-54
2021/07/21 04:13:22;;;;;;;7.57;3.83;;;;;;;;;;5004582;28;20124;-52
2021/07/21 04:15:53;;;;;;;8.77;3.97;;;;;;;;;;5011225;28;20049;-53
2021/07/21 04:18:47;;;;;;;9.27;4.18;;;;;;;;;;4991867;28;20045;-52
2021/07/21 04:21:14;;;;;;;8.15;4.05;;;;;;;;;;4998761;28;20026;-53
2021/07/21 04:23:41;;;;;;;8.13;3.67;;;;;;;;;;5004617;28;20116;-53
2021/07/21 04:26:10;;;;;;;10.27;3.83;;;;;;;;;;5004731;28;20043;-54
2021/07/21 04:28:43;;;;;;;9.20;4.10;;;;;;;;;;5003739;28;20038;-54
2021/07/21 04:31:11;;;;;;;8.93;3.65;;;;;;;;;;5003493;28;20034;-52
2021/07/21 04:33:38;;;;;;;10.23;4.00;;;;;;;;;;5000359;28;20061;-55
2021/07/21 04:36:04;;;;;;;10.13;4.30;;;;;;;;;;5004385;28;20053;-52
2021/07/21 04:38:32;;;;;;;12.85;4.78;;;;;;;;;;4996670;28;20101;-54
2021/07/21 04:40:59;;;;;;;11.43;4.38;;;;;;;;;;5000707;28;20042;-52
2021/07/21 04:43:25;;;;;;;11.95;4.28;;;;;;;;;;5010594;28;20042;-53
2021/07/21 04:45:52;;;;;;;12.20;4.97;;;;;;;;;;5003690;28;20165;-52
2021/07/21 04:48:21;;;;;;;9.50;4.30;;;;;;;;;;5000289;28;20038;-53
2021/07/21 04:50:49;;;;;;;10.30;4.38;;;;;;;;;;5020010;28;20038;-53
2021/07/21 04:53:15;;;;;;;10.17;4.83;;;;;;;;;;5003988;28;20046;-52
2021/07/21 04:55:42;;;;;;;13.55;5.18;;;;;;;;;;5007441;28;20279;-51
2021/07/21 04:58:11;;;;;;;13.05;4.72;;;;;;;;;;5003287;28;20038;-52
2021/07/21 05:00:38;;;;;;;13.50;5.13;;;;;;;;;;5007175;28;20026;-55
2021/07/21 05:03:06;;;;;;;11.82;5.43;;;;;;;;;;5023534;28;20049;-53
2021/07/21 05:05:34;;;;;;;14.27;5.35;;;;;;;;;;5044802;28;20048;-53
2021/07/21 05:08:13;;;;;;;10.68;4.90;;;;;;;;;;5043145;28;20115;-51
2021/07/21 05:10:43;;;;;;;12.65;5.28;;;;;;;;;;5046370;28;20048;-53
2021/07/21 05:13:10;;;;;;;12.27;5.43;;;;;;;;;;5042049;28;20111;-50
2021/07/21 05:15:36;;;;;;;10.88;4.85;;;;;;;;;;5043975;28;20053;-51
2021/07/21 05:18:15;;;;;;;10.68;4.55;;;;;;;;;;5043239;28;20033;-54
2021/07/21 05:20:44;;;;;;;14.15;5.15;;;;;;;;;;5041968;28;20065;-52
2021/07/21 05:23:11;;;;;;;13.10;5.70;;;;;;;;;;5024180;28;20056;-53
2021/07/21 05:25:39;;;;;;;14.25;5.63;;;;;;;;;;5021179;28;20059;-52
2021/07/21 05:28:08;;;;;;;11.98;5.15;;;;;;;;;;5022819;28;20041;-50
2021/07/21 05:30:34;;;;;;;11.27;4.75;;;;;;;;;;5038015;28;20033;-53
2021/07/21 05:33:01;;;;;;;11.32;5.07;;;;;;;;;;5045151;28;20049;-51
2021/07/21 05:35:27;;;;;;;12.93;5.90;;;;;;;;;;5042387;28;20029;-49
2021/07/21 05:38:05;;;;;;;12.95;5.65;;;;;;;;;;5048255;28;20091;-53
2021/07/21 05:40:32;;;;;;;;;;;;;;;;;;5037863;28;20041;-49
2021/07/21 05:42:58;;;;;;;17.98;7.53;;;;;;;;;;5042613;28;19921;-54
2021/07/21 05:45:26;;;;;;;14.27;6.65;;;;;;;;;;5042351;28;20057;-53
2021/07/21 05:47:53;;;;;;;13.02;6.65;;;;;;;;;;5031443;28;20155;-53
2021/07/21 05:50:20;;;;;;;17.45;7.05;;;;;;;;;;5036278;28;20040;-55
2021/07/21 05:52:46;;;;;;;18.23;5.90;;;;;;;;;;5043839;28;20041;-53
2021/07/21 05:55:14;;;;;;;13.77;6.18;;;;;;;;;;5023158;28;20045;-53
2021/07/21 05:57:46;;;;;;;12.27;5.53;;;;;;;;;;5044352;28;20057;-53
2021/07/21 06:00:13;;;;;;;15.20;5.70;;;;;;;;;;5036719;28;20049;-54
2021/07/21 06:02:40;;;;;;;15.35;7.00;;;;;;;;;;5042184;28;20037;-52
2021/07/21 06:05:08;;;;;;;18.85;7.20;;;;;;;;;;5027307;28;20049;-52
2021/07/21 06:07:39;;;;;;;14.65;6.05;;;;;;;;;;5006813;28;20049;-53
2021/07/21 06:10:06;;;;;;;13.77;5.90;;;;;;;;;;5012527;28;20030;-53
2021/07/21 06:12:34;;;;;;;14.00;6.07;;;;;;;;;;5039704;28;20077;-54
2021/07/21 06:15:00;;;;;;;15.85;6.25;;;;;;;;;;5045688;28;20033;-53
2021/07/21 06:17:39;;;;;;;15.32;6.47;;;;;;;;;;5027003;28;20069;-52
2021/07/21 06:20:07;;;;;;;17.88;6.80;;;;;;;;;;5025349;28;20033;-52
2021/07/21 06:22:38;;;;;;;20.65;7.03;;;;;;;;;;5020940;28;20033;-53
2021/07/21 06:25:05;;;;;;;24.45;7.35;;;;;;;;;;5044758;28;20078;-52
2021/07/21 06:27:39;;;;;;;17.55;7.35;;;;;;;;;;5029608;28;20045;-53
2021/07/21 06:30:07;;;;;;;20.48;7.00;;;;;;;;;;5025085;28;20123;-53
2021/07/21 06:32:34;;;;;;;18.17;7.95;;;;;;;;;;5037546;28;20048;-53
2021/07/21 06:35:01;;;;;;;14.13;6.82;;;;;;;;;;5024535;28;20042;-56
2021/07/21 06:37:32;;;;;;;20.55;7.32;;;;;;;;;;5011810;28;20049;-51
2021/07/21 06:39:58;;;;;;;16.63;6.53;;;;;;;;;;5040763;28;20041;-51
2021/07/21 06:42:27;;;;;;;18.13;7.13;;;;;;;;;;5025548;28;20033;-50
2021/07/21 06:44:55;;;;;;;15.60;6.80;;;;;;;;;;5041749;28;20033;-53
2021/07/21 06:47:22;;;;;;;19.73;7.53;;;;;;;;;;5022596;28;20049;-53
2021/07/21 06:49:48;;;;;;;16.48;6.63;;;;;;;;;;5025172;28;20124;-55
2021/07/21 06:52:17;;;;;;;15.00;7.22;;;;;;;;;;5037867;28;20030;-56
2021/07/21 06:54:44;;;;;;;16.52;7.25;;;;;;;;;;5046167;28;20056;-56
2021/07/21 06:57:18;;;;;;;16.30;6.80;;;;;;;;;;5045011;28;20029;-54
2021/07/21 06:59:44;;;;;;;20.75;7.35;;;;;;;;;;5025217;28;20098;-54
2021/07/21 07:02:12;;;;;;;17.27;7.25;;;;;;;;;;5025062;28;20042;-50
2021/07/21 07:04:39;;;;;;;17.17;6.67;;;;;;;;;;5007251;28;20049;-55
2021/07/21 07:07:13;;;;;;;18.30;6.65;;;;;;;;;;5024600;28;20283;-54
2021/07/21 07:09:40;;;;;;;12.88;6.57;;;;;;;;;;5037220;28;20053;-55
2021/07/21 07:12:06;;;;;;;15.75;7.00;;;;;;;;;;5043791;28;20053;-53
2021/07/21 07:14:33;;;;;;;21.00;7.82;;;;;;;;;;5032920;28;20041;-54
2021/07/21 07:16:59;;;;;;;16.00;7.22;;;;;;;;;;5009238;28;20046;-56
2021/07/21 07:19:27;;;;;;;19.15;7.07;;;;;;;;;;5023651;28;20091;-53
2021/07/21 07:21:54;;;;;;;17.95;7.78;;;;;;;;;;5006198;28;20116;-55
2021/07/21 07:24:20;;;;;;;19.23;6.97;;;;;;;;;;5030431;28;20033;-54
2021/07/21 07:26:49;;;;;;;21.63;7.57;;;;;;;;;;5017465;28;20045;-51
2021/07/21 07:29:15;;;;;;;20.45;7.28;;;;;;;;;;5033202;28;20041;-55
2021/07/21 07:31:42;;;;;;;20.60;8.07;;;;;;;;;;5007228;28;20029;-55
2021/07/21 07:34:09;;;;;;;16.05;7.20;;;;;;;;;;5007564;28;20072;-54
2021/07/21 07:36:37;;;;;;;23.15;7.50;;;;;;;;;;5026287;28;20037;-55
2021/07/21 07:39:04;;;;;;;14.65;6.97;;;;;;;;;;5039575;28;20041;-52
2021/07/21 07:41:30;;;;;;;23.55;7.55;;;;;;;;;;5044554;28;20052;-54
2021/07/21 07:43:57;;;;;;;25.77;8.20;;;;;;;;;;5043211;28;20071;-55
2021/07/21 07:46:26;;;;;;;19.17;7.63;;;;;;;;;;5039422;28;20037;-52
2021/07/21 07:48:54;;;;;;;17.58;7.57;;;;;;;;;;5044427;28;20030;-55
2021/07/21 07:51:21;;;;;;;17.80;7.40;;;;;;;;;;5023769;28;20041;-52
2021/07/21 07:53:49;;;;;;;27.63;8.98;;;;;;;;;;5024879;28;20329;-50
2021/07/21 07:56:15;;;;;;;22.50;9.05;;;;;;;;;;5004225;28;20022;-53
2021/07/21 07:58:45;;;;;;;19.90;8.35;;;;;;;;;;5024783;28;20034;-56
2021/07/21 08:01:11;;;;;;;24.13;8.52;;;;;;;;;;5013840;28;20116;-51
2021/07/21 08:03:38;;;;;;;18.63;7.80;;;;;;;;;;5004250;28;20034;-53
2021/07/21 08:06:04;;;;;;;21.73;8.20;;;;;;;;;;5000951;28;20088;-53
2021/07/21 08:08:51;;;;;;;21.70;8.88;;;;;;;;;;5021791;28;20031;-55
2021/07/21 08:11:17;;;;;;;17.73;7.38;;;;;;;;;;5000771;28;20286;-53
2021/07/21 08:13:44;;;;;;;23.65;7.78;;;;;;;;;;5004230;28;20030;-56
2021/07/21 08:16:12;;;;;;;23.08;7.07;;;;;;;;;;5000749;28;20070;-55
2021/07/21 08:18:42;;;;;;;19.25;7.60;;;;;;;;;;5005075;28;20034;-53
2021/07/21 08:21:08;;;;;;;17.17;6.93;;;;;;;;;;4998919;28;20045;-54
2021/07/21 08:23:35;;;;;;;13.77;6.82;;;;;;;;;;5005504;28;20042;-54
2021/07/21 08:26:03;;;;;;;19.92;6.53;;;;;;;;;;5002092;28;20038;-55
2021/07/21 08:28:35;;;;;;;18.08;6.30;;;;;;;;;;5007897;28;20105;-52
2021/07/21 08:31:01;;;;;;;16.95;6.25;;;;;;;;;;5020289;28;20120;-56
2021/07/21 08:33:28;;;;;;;15.45;6.63;;;;;;;;;;5008068;28;20120;-55
2021/07/21 08:35:54;;;;;;;16.98;6.10;;;;;;;;;;5007212;28;20030;-53
2021/07/21 08:38:23;;;;;;;16.52;6.60;;;;;;;;;;5004661;28;20030;-55
2021/07/21 08:40:50;;;;;;;16.27;6.95;;;;;;;;;;5007157;28;20058;-55
2021/07/21 08:43:18;;;;;;;15.30;7.07;;;;;;;;;;5006975;28;20038;-51
2021/07/21 08:45:45;;;;;;;14.43;6.30;;;;;;;;;;5012646;28;20038;-54
2021/07/21 08:48:12;;;;;;;18.77;5.53;;;;;;;;;;5004078;28;20046;-52
2021/07/21 08:50:40;;;;;;;20.90;6.40;;;;;;;;;;5005593;28;20049;-53
2021/07/21 08:53:06;;;;;;;15.82;6.38;;;;;;;;;;5004281;28;20030;-54
2021/07/21 08:55:33;;;;;;;19.13;6.85;;;;;;;;;;5008563;28;20038;-55
2021/07/21 08:58:01;;;;;;;18.05;6.07;;;;;;;;;;5003754;28;20042;-53
2021/07/21 09:00:30;;;;;;;12.10;5.68;;;;;;;;;;5007261;28;20038;-54
2021/07/21 09:02:57;;;;;;;14.70;6.30;;;;;;;;;;5019544;28;20034;-52
2021/07/21 09:05:23;;;;;;;14.60;6.22;;;;;;;;;;5044961;28;20276;-55
2021/07/21 09:07:52;;;;;;;14.10;5.88;;;;;;;;;;5042149;28;20033;-52
2021/07/21 09:10:18;;;;;;;;;;;;;;;;;;5041232;28;20033;-56
2021/07/21 09:12:45;;;;;;;10.75;3.92;;;;;;;;;;5006860;28;20003;-53
2021/07/21 09:15:13;;;;;;;11.02;4.88;;;;;;;;;;5045003;28;20044;-52
2021/07/21 09:17:55;;;;;;;13.98;5.53;;;;;;;;;;5048117;28;20040;-55
2021/07/21 09:20:23;;;;;;;19.98;5.90;;;;;;;;;;5023933;28;20135;-53
2021/07/21 09:22:52;;;;;;;13.68;6.40;;;;;;;;;;5025925;28;20030;-54
2021/07/21 09:25:19;;;;;;;15.30;5.82;;;;;;;;;;5037240;28;20053;-55
2021/07/21 09:27:48;;;;;;;13.52;5.82;;;;;;;;;;5008825;28;20038;-56
2021/07/21 09:30:14;;;;;;;;;;;;;;;;;;5038326;28;20044;-55
2021/07/21 09:32:51;;;;;;;12.32;5.97;;;;;;;;;;5043145;28;19921;-53
2021/07/21 09:35:17;;;;;;;13.75;5.78;;;;;;;;;;5033294;28;20054;-55
2021/07/21 09:37:49;;;;;;;;;;;;;;;;;;5042017;28;20038;-56
2021/07/21 09:40:17;;;;;;;13.52;6.05;;;;;;;;;;5023735;28;19949;-55
2021/07/21 09:42:43;;;;;;;9.93;4.45;;;;;;;;;;5042239;28;20045;-55
2021/07/21 09:45:11;;;;;;;15.70;6.00;;;;;;;;;;5042493;28;20046;-50
2021/07/21 09:47:41;;;;;;;15.90;6.43;;;;;;;;;;5006971;28;20111;-56
2021/07/21 09:50:12;;;;;;;13.10;5.18;;;;;;;;;;5028557;28;20049;-53
2021/07/21 09:52:45;;;;;;;13.95;5.85;;;;;;;;;;5022021;28;20034;-58
2021/07/21 09:55:13;;;;;;;11.52;5.90;;;;;;;;;;5025990;28;20141;-54
2021/07/21 09:57:43;;;;;;;11.82;5.30;;;;;;;;;;5039659;28;20061;-55
2021/07/21 10:00:17;;;;;;;14.32;5.78;;;;;;;;;;5027694;28;20026;-55
2021/07/21 10:02:43;;;;;;;13.23;5.93;;;;;;;;;;5027167;28;20033;-56
2021/07/21 10:05:10;;;;;;;18.75;6.20;;;;;;;;;;5008206;28;20038;-54
2021/07/21 10:07:51;;;;;;;11.90;5.78;;;;;;;;;;5018937;28;20091;-54
2021/07/21 10:10:20;;;;;;;15.80;5.82;;;;;;;;;;5034323;28;20045;-54
2021/07/21 10:12:59;;;;;;;13.60;5.45;;;;;;;;;;5023974;28;20131;-55
2021/07/21 10:15:26;;;;;;;11.15;5.25;;;;;;;;;;5007692;28;20119;-56
2021/07/21 10:18:14;;;;;;;12.50;6.05;;;;;;;;;;5031682;28;20033;-54
2021/07/21 10:20:41;;;;;;;14.13;5.63;;;;;;;;;;5050665;28;20029;-53
2021/07/21 10:23:08;;;;;;;13.00;5.63;;;;;;;;;;5045289;28;20086;-56
2021/07/21 10:25:35;;;;;;;13.05;5.20;;;;;;;;;;5042993;28;20057;-54
2021/07/21 10:28:03;;;;;;;14.43;5.90;;;;;;;;;;5040405;28;20041;-56
2021/07/21 10:30:30;;;;;;;;;;;;;;;;;;5043963;28;20052;-55
2021/07/21 10:32:57;;;;;;;11.57;5.43;;;;;;;;;;5038821;28;19998;-57
2021/07/21 10:35:24;;;;;;;14.27;5.72;;;;;;;;;;5043188;28;20127;-57
2021/07/21 10:37:59;;;;;;;20.50;5.80;;;;;;;;;;5039284;28;20053;-56
2021/07/21 10:40:27;;;;;;;12.80;5.25;;;;;;;;;;5044448;28;20055;-57
2021/07/21 10:42:56;;;;;;;11.30;5.30;;;;;;;;;;5034688;28;20091;-55
2021/07/21 10:45:25;;;;;;;11.95;5.38;;;;;;;;;;5028347;28;20045;-54
2021/07/21 10:48:04;;;;;;;11.45;5.05;;;;;;;;;;5041364;28;20050;-55
2021/07/21 10:50:37;;;;;;;;;;;;;;;;;;5023908;28;20069;-56
2021/07/21 10:53:24;;;;;;;11.50;4.90;;;;;;;;;;5004775;28;19922;-57
2021/07/21 10:59:11;;;;;;;12.25;5.72;;;;;;;;;;5024039;28;20047;-56
2021/07/21 10:59:14;;;;;;;12.67;5.30;;;;;;;;;;5007694;28;20065;-57
2021/07/21 11:01:42;;;;;;;11.00;4.63;;;;;;;;;;5025837;28;20045;-57
2021/07/21 11:04:08;;;;;;;;;;;;;;;;;;5035520;28;20048;-57
2021/07/21 11:06:39;;;;;;;12.32;4.85;;;;;;;;;;5023392;28;19941;-57
2021/07/21 11:09:22;;;;;;;13.32;5.40;;;;;;;;;;5040190;28;20029;-54
2021/07/21 11:11:50;;;;;;;14.18;5.63;;;;;;;;;;5042878;28;20110;-57
2021/07/21 11:14:18;;;;;;;13.07;5.30;;;;;;;;;;5037069;28;20046;-56
2021/07/21 11:16:50;;;;;;;9.40;4.22;;;;;;;;;;5015587;28;20041;-53
2021/07/21 11:19:29;;;;;;;12.75;4.97;;;;;;;;;;5058647;28;20048;-55
2021/07/21 11:21:57;;;;;;;14.77;6.30;;;;;;;;;;5044507;28;20119;-56
2021/07/21 11:24:23;;;;;;;13.18;5.45;;;;;;;;;;5040698;28;20093;-58
2021/07/21 11:26:52;;;;;;;13.68;5.68;;;;;;;;;;5042708;28;20043;-56
2021/07/21 11:29:37;;;;;;;12.73;5.68;;;;;;;;;;5043376;28;20041;-56
2021/07/21 11:32:06;;;;;;;17.00;6.32;;;;;;;;;;5021275;28;20111;-56
2021/07/21 11:34:33;;;;;;;15.13;5.72;;;;;;;;;;5007173;28;20090;-57
2021/07/21 11:37:00;;;;;;;13.45;6.20;;;;;;;;;;5037613;28;20041;-58
2021/07/21 11:39:46;;;;;;;17.40;6.30;;;;;;;;;;5044698;28;20041;-56
2021/07/21 11:42:33;;;;;;;12.93;5.57;;;;;;;;;;5022060;28;20025;-56
2021/07/21 11:45:12;;;;;;;13.93;5.47;;;;;;;;;;5024715;28;20107;-56
2021/07/21 11:47:43;;;;;;;14.35;5.90;;;;;;;;;;5008271;28;20044;-57
2021/07/21 11:50:11;;;;;;;14.98;5.35;;;;;;;;;;5015498;28;20046;-55
2021/07/21 11:52:38;;;;;;;9.75;4.55;;;;;;;;;;5039314;28;20044;-55
2021/07/21 11:55:06;;;;;;;14.23;5.57;;;;;;;;;;5046252;28;20122;-57
2021/07/21 11:57:46;;;;;;;13.43;5.45;;;;;;;;;;5028491;28;20038;-58
2021/07/21 12:00:13;;;;;;;14.25;5.65;;;;;;;;;;5027560;28;20045;-56
2021/07/21 12:02:39;;;;;;;12.00;5.35;;;;;;;;;;5020165;28;20123;-56
2021/07/21 12:05:09;;;;;;;13.30;4.63;;;;;;;;;;5043315;28;20048;-57
2021/07/21 12:07:40;;;;;;;13.38;5.60;;;;;;;;;;5039339;28;20038;-57
2021/07/21 12:10:11;;;;;;;12.13;5.22;;;;;;;;;;5029041;28;20029;-56
2021/07/21 12:12:40;;;;;;;11.27;4.78;;;;;;;;;;5021447;28;20037;-56
2021/07/21 12:15:08;;;;;;;16.00;5.47;;;;;;;;;;5023630;28;20096;-57
2021/07/21 12:17:35;;;;;;;10.68;4.97;;;;;;;;;;5014289;28;20030;-56
2021/07/21 12:20:03;;;;;;;11.25;5.18;;;;;;;;;;5022862;28;20041;-57
2021/07/21 12:22:29;;;;;;;;;;;;;;;;;;5007790;28;20057;-57
2021/07/21 12:24:58;;;;;;;15.02;4.47;;;;;;;;;;5041414;28;19938;-56
2021/07/21 12:27:30;;;;;;;12.27;5.35;;;;;;;;;;5039885;28;20037;-57
2021/07/21 12:29:57;;;;;;;15.70;5.20;;;;;;;;;;5023300;28;20057;-56
2021/07/21 12:32:26;;;;;;;9.73;4.80;;;;;;;;;;5039058;28;20086;-57
2021/07/21 12:34:52;;;;;;;;;;;;;;;;;;5008238;28;20034;-56
2021/07/21 12:37:23;;;;;;;13.10;5.55;;;;;;;;;;5022887;28;19924;-57
2021/07/21 12:39:50;;;;;;;12.15;5.75;;;;;;;;;;5009677;28;20045;-54
2021/07/21 12:42:19;;;;;;;10.45;5.45;;;;;;;;;;5021574;28;20030;-56
2021/07/21 12:44:47;;;;;;;12.90;5.15;;;;;;;;;;5018454;28;20026;-56
2021/07/21 12:47:31;;;;;;;15.10;5.25;;;;;;;;;;5006163;28;20033;-57
2021/07/21 12:49:59;;;;;;;13.57;5.50;;;;;;;;;;5020267;28;20025;-57
2021/07/21 12:52:27;;;;;;;16.95;5.25;;;;;;;;;;5037462;28;20038;-57
2021/07/21 12:54:54;;;;;;;15.48;6.55;;;;;;;;;;5021785;28;20056;-56
2021/07/21 12:57:39;;;;;;;13.43;4.97;;;;;;;;;;5043773;28;20041;-57
2021/07/21 13:00:16;;;;;;;12.88;5.40;;;;;;;;;;5032336;28;20259;-57
2021/07/21 13:02:54;;;;;;;12.90;5.45;;;;;;;;;;5042546;28;20037;-58
2021/07/21 13:05:27;;;;;;;11.15;5.45;;;;;;;;;;4999556;28;20042;-56
2021/07/21 13:07:54;;;;;;;10.15;4.97;;;;;;;;;;5002341;28;20112;-57
2021/07/21 13:10:21;;;;;;;11.02;5.32;;;;;;;;;;4989051;28;20038;-57
2021/07/21 13:12:50;;;;;;;14.38;5.68;;;;;;;;;;5004247;28;20046;-57
2021/07/21 13:15:24;;;;;;;13.57;6.03;;;;;;;;;;5010745;28;20046;-57
2021/07/21 13:17:58;;;;;;;9.85;5.00;;;;;;;;;;5002893;28;20075;-57
2021/07/21 13:20:30;;;;;;;15.23;5.75;;;;;;;;;;4982975;28;20051;-58
2021/07/21 13:23:16;;;;;;;11.93;5.50;;;;;;;;;;5037545;28;20041;-57
2021/07/21 13:25:43;;;;;;;10.63;5.13;;;;;;;;;;5005321;28;20071;-58
2021/07/21 13:28:32;;;;;;;11.30;5.55;;;;;;;;;;5002811;28;20050;-58
2021/07/21 13:31:12;;;;;;;11.70;5.18;;;;;;;;;;4991216;28;20050;-56
2021/07/21 13:33:38;;;;;;;14.05;5.13;;;;;;;;;;5006791;28;20133;-55
2021/07/21 13:36:06;;;;;;;13.43;5.43;;;;;;;;;;5010247;28;20045;-53
2021/07/21 13:38:34;;;;;;;11.45;5.35;;;;;;;;;;5008705;28;20030;-58
2021/07/21 13:41:01;;;;;;;11.75;5.57;;;;;;;;;;4996881;28;20341;-58
2021/07/21 13:43:29;;;;;;;12.50;5.38;;;;;;;;;;5003222;28;20054;-55
2021/07/21 13:45:55;;;;;;;13.63;5.78;;;;;;;;;;5000301;28;20108;-57
2021/07/21 13:48:36;;;;;;;12.52;5.65;;;;;;;;;;5004093;28;20041;-56
2021/07/21 13:51:12;;;;;;;15.77;4.50;;;;;;;;;;5001956;28;20046;-56
2021/07/21 13:53:39;;;;;;;15.35;5.82;;;;;;;;;;5022478;28;20278;-57
2021/07/21 13:56:06;;;;;;;12.25;4.88;;;;;;;;;;5019479;28;20042;-57
2021/07/21 13:58:49;;;;;;;12.20;5.95;;;;;;;;;;4998414;28;20026;-56
2021/07/21 14:01:15;;;;;;;15.88;5.45;;;;;;;;;;5003372;28;20045;-57
2021/07/21 14:03:46;;;;;;;15.15;5.53;;;;;;;;;;5004729;28;20030;-58
2021/07/21 14:06:14;;;;;;;13.15;5.82;;;;;;;;;;5002719;28;20053;-58
2021/07/21 14:09:01;;;;;;;14.95;5.63;;;;;;;;;;5021414;28;20075;-56
2021/07/21 14:11:27;;;;;;;15.15;6.00;;;;;;;;;;5017279;28;20053;-56
2021/07/21 14:13:54;;;;;;;17.88;6.70;;;;;;;;;;5005664;28;20042;-57
2021/07/21 14:16:21;;;;;;;12.13;5.70;;;;;;;;;;5019716;28;20128;-56
2021/07/21 14:18:49;;;;;;;12.73;6.35;;;;;;;;;;5002970;28;20049;-56
2021/07/21 14:21:15;;;;;;;14.48;5.32;;;;;;;;;;5005447;28;20042;-55
2021/07/21 14:23:42;;;;;;;12.32;5.97;;;;;;;;;;5002875;28;20110;-55
2021/07/21 14:26:09;;;;;;;12.82;6.15;;;;;;;;;;5007044;28;20066;-56
2021/07/21 14:28:47;;;;;;;10.65;5.43;;;;;;;;;;5000965;28;20042;-57
2021/07/21 14:31:13;;;;;;;;;;;;;;;;;;5022210;28;20034;-56
2021/07/21 14:33:40;;;;;;;11.60;5.78;;;;;;;;;;4999850;28;19996;-55
2021/07/21 14:36:08;;;;;;;10.60;5.22;;;;;;;;;;5004710;28;20042;-56
2021/07/21 14:38:43;;;;;;;13.45;5.68;;;;;;;;;;4996212;28;20053;-56
2021/07/21 14:41:13;;;;;;;16.63;6.50;;;;;;;;;;5004903;28;20038;-57
2021/07/21 14:43:39;;;;;;;12.57;6.20;;;;;;;;;;5017769;28;20082;-57
2021/07/21 14:46:06;;;;;;;16.67;6.40;;;;;;;;;;5006256;28;20042;-57
2021/07/21 14:48:40;;;;;;;12.57;6.15;;;;;;;;;;5002670;28;20035;-57
2021/07/21 14:51:08;;;;;;;12.10;5.70;;;;;;;;;;5005048;28;20061;-56